LEIBLEBB

Guest
Details From LEIB - Ibiza
To LEBB - Bilbao
Flight Number -
Tags Generated
Created
Modified
Stats Distance 330 nm / 611 km
Max Altitude 0 ft / 0 m
Waypoints 3
Social Downloads 2
Likes 0
Share VATSIM

Download

Looking for another format? Having issues loading an existing format? Contact us
Advertisement - Login to hide

Notes

Generated

Route

LEIB URQUI LEBB

ID Type Via Altitude Latitude Longitude Leg Dist Tot Dist Heading (true) Name
O LEIB APT - 0 ft / 0 m 38.86694˚ 1.35887˚ - 0 nm - -
URQUI FIX - 0 ft / 0 m 43.07485˚ -2.66508˚ 311 nm 311 nm 325° / 323° -
O LEBB APT - 0 ft / 0 m 43.30335˚ -2.93703˚ 18 nm 329 nm 319° / 319° -

Altitude Profile

Advertisement - Login to hide

Weather


0- 5 10 15 20 25 30 35+ Temperature / ° C

Clouds and Precipitation
Forecast for 2017-12-13 06:00 UTC. Updated 33 minutes ago

Ground ~20,000 ft ~40,000 ft Winds

LEIB

Details ICAO LEIB (IBZ)
Name Ibiza
Region Spain
Timezone Europe/Madrid (UTC+1.0)
Stats Elevation 20 ft / 6 m (AMSL)
Location 38.872871° 1.373045°
Runways 1
Magnetic Variation 0.662° E

METAR

Not found

TAF

TAF LEIB 122000Z 1221/1321 33005KT 9999 FEW025 TX16/1309Z TN07/1306Z BECMG 1310/1312 24010KT TEMPO 1315/1321 24015G25KT

Decode

Departure Runways

ID Width Length Bearing (true) Bearing (mag) Surface Threshold Offset Overrun Length
06 148 ft / 45 m 9,153 ft / 2,790 m 61.85° 61.19° Asphalt 0 ft / 0 m 213 ft / 65 m
24 148 ft / 45 m 9,153 ft / 2,790 m 241.86° 241.20° Asphalt 0 ft / 0 m 197 ft / 60 m

LEBB

Details ICAO LEBB (BIO)
Name Bilbao
Region Spain
Timezone Europe/Madrid (UTC+1.0)
Stats Elevation 137 ft / 42 m (AMSL)
Location 43.301692° -2.917664°
Runways 2
Magnetic Variation 0.630° W

METAR

LEBB 130130Z AUTO 00000KT 9999 NCD 04/02 Q1021

Decode

TAF

TAF LEBB 122300Z 1300/1324 20009KT 9999 SCT040 TX15/1314Z TN04/1304Z TEMPO 1303/1321 20015G25KT PROB30 TEMPO 1312/1321 RA TEMPO 1321/1324 3000 RA

Decode

Destination Runways

ID Width Length Bearing (true) Bearing (mag) Surface Threshold Offset Overrun Length
10 148 ft / 45 m 6,569 ft / 2,002 m 96.66° 97.29° Asphalt 20 ft / 6 m 184 ft / 56 m
12 148 ft / 45 m 8,539 ft / 2,603 m 116.73° 117.36° Asphalt 20 ft / 6 m 197 ft / 60 m
28 148 ft / 45 m 6,569 ft / 2,002 m 276.68° 277.31° Asphalt 23 ft / 7 m 0 ft / 0 m
30 148 ft / 45 m 8,539 ft / 2,603 m 296.75° 297.38° Asphalt 1,509 ft / 460 m 171 ft / 52 m

Approach Navaids

Runway Type Ident Frequency Range Bearing (true) Bearing (mag) Slope Elevation
12 Localiser IBO 111.55 MHz 20 nm / 37 km 116.74° 117.37° - 113 ft / 34 m (AMSL)
12 Glidescope IBO 111.55 MHz 10 nm / 19 km 116.74° 117.37° 3.10° 133 ft / 41 m (AMSL)
12 DME IBO 111.55 MHz 13 nm / 24 km - - - 133 ft / 41 m (AMSL)
30 Localiser IBL 110.30 MHz 20 nm / 37 km 296.74° 297.37° - 106 ft / 32 m (AMSL)
30 Glidescope IBL 110.30 MHz 10 nm / 19 km 296.74° 297.37° 3.40° 133 ft / 41 m (AMSL)
30 DME IBL 110.30 MHz 13 nm / 24 km - - - 132 ft / 40 m (AMSL)

Popular Alternatives